createdAt,value
2018-07-01T00:01:17.632Z,27.30
2018-07-01T00:03:47.021Z,26.50
2018-07-01T00:06:16.872Z,27.20
2018-07-01T00:08:47.159Z,27.40
2018-07-01T00:11:17.274Z,26.40
2018-07-01T00:13:47.264Z,26.20
2018-07-01T00:16:16.574Z,26.50
2018-07-01T00:18:47.267Z,25.50
2018-07-01T00:21:17.346Z,26.40
2018-07-01T00:23:47.739Z,25.60
2018-07-01T00:26:17.474Z,27.40
2018-07-01T00:28:47.672Z,26.70
2018-07-01T00:31:17.226Z,26.50
2018-07-01T00:33:46.913Z,25.90
2018-07-01T00:36:16.233Z,26.30
2018-07-01T00:38:46.061Z,25.50
2018-07-01T00:41:15.269Z,26.40
2018-07-01T00:43:44.580Z,27.20
2018-07-01T00:46:13.770Z,26.30
2018-07-01T00:48:43.715Z,27.50
2018-07-01T00:51:12.915Z,27.30
2018-07-01T00:53:42.129Z,27.60
2018-07-01T00:56:11.382Z,28.40
2018-07-01T00:58:40.600Z,28.40
2018-07-01T01:01:09.852Z,28.40
2018-07-01T01:03:39.976Z,29.10
2018-07-01T01:06:10.140Z,29.60
2018-07-01T01:08:39.443Z,29.00
2018-07-01T01:11:09.121Z,29.60
2018-07-01T01:13:38.962Z,29.50
2018-07-01T01:16:08.794Z,30.00
2018-07-01T01:18:40.307Z,30.00
2018-07-01T01:21:09.496Z,30.60
2018-07-01T01:23:38.823Z,30.60
2018-07-01T01:26:08.019Z,31.50
2018-07-01T01:31:06.011Z,31.10
2018-07-01T01:33:35.258Z,31.70
2018-07-01T01:36:04.575Z,30.70
2018-07-01T01:38:35.938Z,32.00
2018-07-01T01:41:11.784Z,31.70
2018-07-01T01:45:50.109Z,31.60
2018-07-01T01:48:37.817Z,32.50
2018-07-01T01:51:12.499Z,33.80
2018-07-01T01:53:48.642Z,35.10
2018-07-01T01:56:22.842Z,35.40
2018-07-01T01:59:03.510Z,35.20
2018-07-01T02:01:42.500Z,34.30
2018-07-01T02:04:22.061Z,35.40
2018-07-01T02:06:55.981Z,33.80
2018-07-01T02:09:28.204Z,34.50
2018-07-01T02:11:59.306Z,36.10
2018-07-01T02:14:34.467Z,35.80
2018-07-01T02:17:08.131Z,35.60
2018-07-01T02:19:37.514Z,35.20
2018-07-01T02:22:11.325Z,33.40
2018-07-01T02:24:48.540Z,33.80
2018-07-01T02:27:17.842Z,34.70
2018-07-01T02:29:47.215Z,35.40
2018-07-01T02:32:17.569Z,35.40
2018-07-01T02:34:50.294Z,36.00
2018-07-01T02:37:19.651Z,35.60
2018-07-01T02:39:49.176Z,35.30
2018-07-01T02:42:18.352Z,36.90
2018-07-01T02:44:47.694Z,36.10
2018-07-01T02:47:18.355Z,37.00
2018-07-01T02:49:47.661Z,37.00
2018-07-01T02:52:16.829Z,37.00
2018-07-01T02:54:46.213Z,36.10
2018-07-01T02:57:15.430Z,33.50
2018-07-01T02:59:44.615Z,34.60
2018-07-01T03:02:15.493Z,33.70
2018-07-01T03:04:48.632Z,35.30
2018-07-01T03:09:52.581Z,38.50
2018-07-01T03:12:22.552Z,37.50
2018-07-01T03:14:51.777Z,38.70
2018-07-01T03:17:21.827Z,38.70
2018-07-01T03:19:51.967Z,38.20
2018-07-01T03:22:21.230Z,37.10
2018-07-01T03:24:50.752Z,37.00
2018-07-01T03:27:20.055Z,37.80
2018-07-01T03:29:49.217Z,37.80
2018-07-01T03:32:19.372Z,36.50
2018-07-01T03:34:54.486Z,37.60
2018-07-01T03:37:24.320Z,39.30
2018-07-01T03:39:54.667Z,39.90
2018-07-01T03:42:23.870Z,39.70
2018-07-01T03:44:53.242Z,38.30
2018-07-01T03:47:23.050Z,38.70
2018-07-01T03:49:52.297Z,38.20
2018-07-01T03:52:21.769Z,36.80
2018-07-01T03:54:51.059Z,36.50
2018-07-01T03:57:20.290Z,37.90
2018-07-01T03:59:50.193Z,39.50
2018-07-01T04:02:20.499Z,37.90
2018-07-01T04:04:49.991Z,37.50
2018-07-01T04:07:19.254Z,37.10
2018-07-01T04:09:48.438Z,37.10
2018-07-01T04:12:17.756Z,38.20
2018-07-01T04:14:47.097Z,38.80
2018-07-01T04:17:18.363Z,38.60
2018-07-01T04:19:47.535Z,39.60
2018-07-01T04:22:16.771Z,39.40
2018-07-01T04:24:46.153Z,39.90
2018-07-01T04:27:15.588Z,39.40
2018-07-01T04:29:44.779Z,37.60
2018-07-01T04:32:15.401Z,36.90
2018-07-01T04:34:44.781Z,38.40
2018-07-01T04:37:13.983Z,40.30
2018-07-01T04:39:44.131Z,37.10
2018-07-01T04:42:13.358Z,37.70
2018-07-01T04:44:42.562Z,37.10
2018-07-01T04:47:13.062Z,36.70
2018-07-01T04:49:42.219Z,35.70
2018-07-01T04:52:11.383Z,37.50
2018-07-01T04:54:40.584Z,35.50
2018-07-01T04:57:09.807Z,36.50
2018-07-01T04:59:38.988Z,35.90
2018-07-01T05:02:09.135Z,34.40
2018-07-01T05:04:38.412Z,35.80
2018-07-01T05:07:07.585Z,35.60
2018-07-01T05:09:36.762Z,33.70
2018-07-01T05:12:05.982Z,35.10
2018-07-01T05:14:35.262Z,33.30
2018-07-01T05:17:04.565Z,35.20
2018-07-01T05:19:33.668Z,33.20
2018-07-01T05:22:02.856Z,32.70
2018-07-01T05:24:33.202Z,33.30
2018-07-01T05:27:02.387Z,29.10
2018-07-01T05:29:31.582Z,30.60
2018-07-01T05:32:00.775Z,25.30
2018-07-01T05:34:29.989Z,25.80
2018-07-01T05:36:59.214Z,26.70
2018-07-01T05:39:28.501Z,28.10
2018-07-01T05:41:57.972Z,26.40
2018-07-01T05:44:28.291Z,27.60
2018-07-01T05:46:57.628Z,27.60
2018-07-01T05:49:27.007Z,26.70
2018-07-01T05:51:56.753Z,25.60
2018-07-01T05:54:26.114Z,25.70
2018-07-01T05:56:55.319Z,25.80
2018-07-01T05:59:24.759Z,26.70
2018-07-01T06:04:23.118Z,25.50
2018-07-01T06:06:52.533Z,25.30
2018-07-01T06:09:22.430Z,25.20
2018-07-01T06:11:51.848Z,24.40
2018-07-01T06:14:22.249Z,23.90
2018-07-01T06:16:51.975Z,23.50
2018-07-01T06:19:21.155Z,24.60
2018-07-01T06:21:51.297Z,23.20
2018-07-01T06:24:24.433Z,23.00
2018-07-01T06:26:54.433Z,21.60
2018-07-01T06:31:53.320Z,22.40
2018-07-01T06:34:22.735Z,22.20
2018-07-01T06:36:52.453Z,20.90
2018-07-01T06:39:21.711Z,21.00
2018-07-01T06:41:51.290Z,21.20
2018-07-01T06:44:20.692Z,21.80
2018-07-01T06:46:50.108Z,21.50
2018-07-01T06:49:19.694Z,21.50
2018-07-01T06:51:48.928Z,20.80
2018-07-01T06:54:18.276Z,19.80
2018-07-01T06:56:47.652Z,20.70
2018-07-01T06:59:17.886Z,21.70
2018-07-01T07:01:47.197Z,20.20
2018-07-01T07:04:17.663Z,19.30
2018-07-01T07:06:46.949Z,20.30
2018-07-01T07:09:16.805Z,19.80
2018-07-01T07:11:47.103Z,20.10
2018-07-01T07:14:16.418Z,19.00
2018-07-01T07:16:46.786Z,19.60
2018-07-01T07:19:17.360Z,18.90
2018-07-01T07:21:48.092Z,18.90
2018-07-01T07:24:17.986Z,19.30
2018-07-01T07:26:47.492Z,19.20
2018-07-01T07:29:29.989Z,18.20
2018-07-01T07:31:59.257Z,19.30
2018-07-01T07:34:31.572Z,19.40
2018-07-01T07:37:00.756Z,19.70
2018-07-01T07:39:30.262Z,18.30
2018-07-01T07:41:59.507Z,17.50
2018-07-01T07:44:29.833Z,18.70
2018-07-01T07:47:00.794Z,20.20
2018-07-01T07:49:32.047Z,19.50
2018-07-01T07:52:01.243Z,18.50
2018-07-01T07:54:30.907Z,18.40
2018-07-01T07:57:00.165Z,19.40
2018-07-01T07:59:31.525Z,19.50
2018-07-01T08:02:01.187Z,18.50
2018-07-01T08:04:30.808Z,19.40
2018-07-01T08:07:04.819Z,18.60
2018-07-01T08:09:37.072Z,18.10
2018-07-01T08:12:09.917Z,18.80
2018-07-01T08:14:40.155Z,18.80
2018-07-01T08:17:09.395Z,19.20
2018-07-01T08:19:38.580Z,17.50
2018-07-01T08:22:09.285Z,17.20
2018-07-01T08:24:38.586Z,17.40
2018-07-01T08:27:08.918Z,16.80
2018-07-01T08:29:38.125Z,17.10
2018-07-01T08:32:07.373Z,17.10
2018-07-01T08:34:36.593Z,17.70
2018-07-01T08:37:06.991Z,17.40
2018-07-01T08:39:36.250Z,17.00
2018-07-01T08:42:27.605Z,18.20
2018-07-01T08:44:58.259Z,16.60
2018-07-01T08:47:28.659Z,17.20
2018-07-01T08:49:57.869Z,15.90
2018-07-01T08:52:28.638Z,15.60
2018-07-01T08:54:58.324Z,17.00
2018-07-01T08:57:28.175Z,15.60
2018-07-01T08:59:57.413Z,15.80
2018-07-01T09:02:27.337Z,15.40
2018-07-01T09:05:00.115Z,15.90
2018-07-01T09:07:30.162Z,14.90
2018-07-01T09:10:00.341Z,15.20
2018-07-01T09:12:31.048Z,15.30
2018-07-01T09:15:07.087Z,15.90
2018-07-01T09:17:38.294Z,15.10
2018-07-01T09:20:07.798Z,15.50
2018-07-01T09:22:37.011Z,15.60
2018-07-01T09:25:06.551Z,14.20
2018-07-01T09:27:35.762Z,14.10
2018-07-01T09:30:07.122Z,15.70
2018-07-01T09:32:36.387Z,14.30
2018-07-01T09:35:11.336Z,15.50
2018-07-01T09:37:40.727Z,15.00
2018-07-01T09:40:09.950Z,15.50
2018-07-01T09:42:39.187Z,13.90
2018-07-01T09:45:12.325Z,14.10
2018-07-01T09:47:43.579Z,13.90
2018-07-01T09:50:13.432Z,14.30
2018-07-01T09:52:42.626Z,13.30
2018-07-01T09:55:13.806Z,13.70
2018-07-01T09:57:43.184Z,13.20
2018-07-01T10:00:12.796Z,12.70
2018-07-01T10:02:42.910Z,12.30
2018-07-01T10:05:20.218Z,11.80
2018-07-01T10:07:52.771Z,12.40
2018-07-01T10:10:22.979Z,12.70
2018-07-01T10:12:52.228Z,11.90
2018-07-01T10:15:21.526Z,11.40
2018-07-01T10:17:50.904Z,11.70
2018-07-01T10:20:20.142Z,11.50
2018-07-01T10:22:49.359Z,12.50
2018-07-01T10:25:18.736Z,11.80
2018-07-01T10:27:47.988Z,11.60
2018-07-01T10:30:17.250Z,11.60
2018-07-01T10:32:46.580Z,11.30
2018-07-01T10:35:16.601Z,11.10
2018-07-01T10:37:45.816Z,10.80
2018-07-01T10:40:15.157Z,11.50
2018-07-01T10:42:45.382Z,10.80
2018-07-01T10:45:20.378Z,11.10
2018-07-01T10:47:49.640Z,12.10
2018-07-01T10:50:18.851Z,10.60
2018-07-01T10:52:48.031Z,9.90
2018-07-01T10:55:18.768Z,11.10
2018-07-01T10:57:47.972Z,11.20
2018-07-01T11:00:17.269Z,10.30
2018-07-01T11:02:46.468Z,11.10
2018-07-01T11:05:16.926Z,10.40
2018-07-01T11:07:46.170Z,9.80
2018-07-01T11:10:15.884Z,10.40
2018-07-01T11:12:45.200Z,10.10
2018-07-01T11:15:14.528Z,10.20
2018-07-01T11:17:44.159Z,9.80
2018-07-01T11:20:14.928Z,10.10
2018-07-01T11:22:44.151Z,10.10
2018-07-01T11:25:19.457Z,10.40
2018-07-01T11:27:48.872Z,9.60
2018-07-01T11:30:18.115Z,10.10
2018-07-01T11:32:47.367Z,10.00
2018-07-01T11:35:22.800Z,9.80
2018-07-01T11:37:52.203Z,9.80
2018-07-01T11:40:21.394Z,8.80
2018-07-01T11:42:51.094Z,9.20
2018-07-01T11:45:24.843Z,9.50
2018-07-01T11:47:57.587Z,8.80
2018-07-01T11:50:28.092Z,8.80
2018-07-01T11:52:57.430Z,9.60
2018-07-01T11:55:26.679Z,8.20
2018-07-01T11:57:55.850Z,9.50
2018-07-01T12:00:25.054Z,8.30
2018-07-01T12:02:54.354Z,8.30
2018-07-01T12:05:29.477Z,8.00
2018-07-01T12:07:58.764Z,8.20
2018-07-01T12:10:27.946Z,7.90
2018-07-01T12:12:57.089Z,7.70
2018-07-01T12:15:27.466Z,7.90
2018-07-01T12:17:56.671Z,7.00
2018-07-01T12:20:25.851Z,6.90
2018-07-01T12:22:55.063Z,7.20
2018-07-01T12:25:29.628Z,7.20
2018-07-01T12:28:03.386Z,6.50
2018-07-01T12:30:32.649Z,7.00
2018-07-01T12:33:07.339Z,6.00
2018-07-01T12:35:36.660Z,6.90
2018-07-01T12:38:05.908Z,6.30
2018-07-01T12:40:35.100Z,6.60
2018-07-01T12:43:04.325Z,6.60
2018-07-01T12:45:34.647Z,6.60
2018-07-01T12:48:03.969Z,6.30
2018-07-01T12:50:33.154Z,5.40
2018-07-01T12:53:02.523Z,4.50
2018-07-01T12:55:33.905Z,5.20
2018-07-01T12:58:03.098Z,6.60
2018-07-01T13:00:32.308Z,6.90
2018-07-01T13:03:01.500Z,6.40
2018-07-01T13:07:59.616Z,4.80
2018-07-01T13:10:28.813Z,4.70
2018-07-01T13:12:57.964Z,4.70
2018-07-01T13:15:39.489Z,5.40
2018-07-01T13:18:08.764Z,5.80
2018-07-01T13:20:41.837Z,5.00
2018-07-01T13:23:11.064Z,5.10
2018-07-01T13:25:40.233Z,5.10
2018-07-01T13:28:09.918Z,4.30
2018-07-01T13:30:39.152Z,3.70
2018-07-01T13:33:39.871Z,3.50
2018-07-01T13:36:24.695Z,1.90
2018-07-01T13:39:14.461Z,1.10
2018-07-01T13:41:47.174Z,1.00
2018-07-01T13:44:32.512Z,1.00
2018-07-01T13:47:01.885Z,1.00
2018-07-01T13:49:31.226Z,1.00
2018-07-01T13:52:00.541Z,1.00
2018-07-01T13:54:39.750Z,1.00
2018-07-01T13:57:09.087Z,1.00
2018-07-01T13:59:40.387Z,1.00
2018-07-01T14:02:10.399Z,1.00
2018-07-01T14:04:44.221Z,1.00
2018-07-01T14:07:13.475Z,1.00
2018-07-01T14:12:42.021Z,1.00
2018-07-01T14:15:28.785Z,1.00
2018-07-01T14:18:10.364Z,1.00
2018-07-01T14:20:39.553Z,1.00
2018-07-01T14:23:08.921Z,1.00
2018-07-01T14:25:38.276Z,1.00
2018-07-01T14:28:07.514Z,1.00
2018-07-01T14:30:36.667Z,1.00
2018-07-01T14:33:07.127Z,1.00
2018-07-01T14:35:37.454Z,1.00
2018-07-01T14:38:06.794Z,1.00
2018-07-01T14:40:36.094Z,1.00
2018-07-01T14:43:06.506Z,1.00
2018-07-01T14:45:36.431Z,1.00
2018-07-01T14:48:05.758Z,1.00
2018-07-01T14:50:35.081Z,1.00
2018-07-01T14:53:04.426Z,1.00
2018-07-01T14:55:33.743Z,1.00
2018-07-01T14:58:03.074Z,1.00
2018-07-01T15:00:32.401Z,1.00
2018-07-01T15:03:01.609Z,1.00
2018-07-01T15:07:59.658Z,1.00
2018-07-01T15:10:28.875Z,1.00
2018-07-01T15:12:58.073Z,1.00
2018-07-01T15:15:27.429Z,1.00
2018-07-01T15:17:56.832Z,1.00
2018-07-01T15:20:26.173Z,1.00
2018-07-01T15:22:55.518Z,1.00
2018-07-01T15:25:24.990Z,1.00
2018-07-01T15:27:55.390Z,1.00
2018-07-01T15:30:24.645Z,1.00
2018-07-01T15:32:53.796Z,1.00
2018-07-01T15:35:26.296Z,1.00
2018-07-01T15:38:13.719Z,1.00
2018-07-01T15:40:43.082Z,1.00
2018-07-01T15:43:12.335Z,1.00
2018-07-01T15:45:41.599Z,1.00
2018-07-01T15:48:10.825Z,1.00
2018-07-01T15:50:40.084Z,1.00
2018-07-01T15:53:09.999Z,1.00
2018-07-01T15:55:44.471Z,1.00
2018-07-01T15:58:14.080Z,1.00
2018-07-01T16:03:13.077Z,1.00
2018-07-01T16:05:42.877Z,1.00
2018-07-01T16:08:12.116Z,1.00
2018-07-01T16:10:41.374Z,1.00
2018-07-01T16:13:10.830Z,1.00
2018-07-01T16:15:40.032Z,1.00
2018-07-01T16:18:09.466Z,1.00
2018-07-01T16:20:38.687Z,1.00
2018-07-01T16:23:07.997Z,1.00
2018-07-01T16:25:42.461Z,1.00
2018-07-01T16:28:16.993Z,1.00
2018-07-01T16:30:46.580Z,1.00
2018-07-01T16:33:15.833Z,1.00
2018-07-01T16:35:46.286Z,1.00
2018-07-01T16:38:16.395Z,1.00
2018-07-01T16:40:45.694Z,1.00
2018-07-01T16:43:16.106Z,1.00
2018-07-01T16:45:45.541Z,1.00
2018-07-01T16:48:15.728Z,1.00
2018-07-01T16:50:44.931Z,1.00
2018-07-01T16:53:14.474Z,1.00
2018-07-01T16:55:44.286Z,1.00
2018-07-01T16:58:14.295Z,1.00
2018-07-01T17:00:43.465Z,1.00
2018-07-01T17:03:12.718Z,1.00
2018-07-01T17:05:42.323Z,1.00
2018-07-01T17:08:11.675Z,1.00
2018-07-01T17:10:40.930Z,1.00
2018-07-01T17:13:10.119Z,1.00
2018-07-01T17:15:39.327Z,1.00
2018-07-01T17:18:08.604Z,1.00
2018-07-01T17:20:37.766Z,1.00
2018-07-01T17:23:06.951Z,1.00
2018-07-01T17:25:55.057Z,1.00
2018-07-01T17:28:25.663Z,1.00
2018-07-01T17:31:00.405Z,1.00
2018-07-01T17:33:30.662Z,1.00
2018-07-01T17:36:00.054Z,1.00
2018-07-01T17:38:29.496Z,1.00
2018-07-01T17:40:58.769Z,1.00
2018-07-01T17:43:27.949Z,1.00
2018-07-01T17:45:57.208Z,1.00
2018-07-01T17:48:26.462Z,1.00
2018-07-01T17:50:55.661Z,1.00
2018-07-01T17:53:35.903Z,1.00
2018-07-01T17:56:05.446Z,1.00
2018-07-01T17:58:51.014Z,1.00
2018-07-01T18:01:21.757Z,1.00
2018-07-01T18:03:54.240Z,1.00
2018-07-01T18:06:29.188Z,1.00
2018-07-01T18:12:20.277Z,1.40
2018-07-01T18:17:43.406Z,2.20
2018-07-01T18:20:22.471Z,2.40
2018-07-01T18:23:27.417Z,2.80
2018-07-01T18:25:30.372Z,3.60
2018-07-01T18:28:11.464Z,3.70
2018-07-01T18:30:33.014Z,3.50
2018-07-01T18:33:02.248Z,4.10
2018-07-01T18:35:31.606Z,4.10
2018-07-01T18:38:00.848Z,5.10
2018-07-01T18:40:30.044Z,5.30
2018-07-01T18:42:59.845Z,5.10
2018-07-01T18:45:29.864Z,4.90
2018-07-01T18:47:59.104Z,5.10
2018-07-01T18:50:28.750Z,5.50
2018-07-01T18:52:58.188Z,5.60
2018-07-01T18:55:27.595Z,5.60
2018-07-01T18:57:56.761Z,5.90
2018-07-01T19:00:25.940Z,5.60
2018-07-01T19:02:56.006Z,6.00
2018-07-01T19:05:25.927Z,5.70
2018-07-01T19:07:55.131Z,7.20
2018-07-01T19:10:24.345Z,6.00
2018-07-01T19:12:53.563Z,6.60
2018-07-01T19:15:29.730Z,6.60
2018-07-01T19:17:59.025Z,6.90
2018-07-01T19:20:28.644Z,7.60
2018-07-01T19:22:58.124Z,7.50
2018-07-01T19:25:29.475Z,7.10
2018-07-01T19:27:58.700Z,7.70
2018-07-01T19:30:27.984Z,7.50
2018-07-01T19:32:57.916Z,7.90
2018-07-01T19:35:27.268Z,7.80
2018-07-01T19:37:56.586Z,8.30
2018-07-01T19:40:25.772Z,8.40
2018-07-01T19:42:55.122Z,8.50
2018-07-01T19:45:29.590Z,8.50
2018-07-01T19:47:58.833Z,8.90
2018-07-01T19:50:31.756Z,9.00
2018-07-01T19:53:02.385Z,9.20
2018-07-01T19:58:00.461Z,10.10
2018-07-01T20:00:29.981Z,10.30
2018-07-01T20:03:00.665Z,10.30
2018-07-01T20:05:29.931Z,10.20
2018-07-01T20:07:59.249Z,10.40
2018-07-01T20:10:30.234Z,10.40
2018-07-01T20:12:59.743Z,11.00
2018-07-01T20:15:34.614Z,10.50
2018-07-01T20:18:04.385Z,10.90
2018-07-01T20:20:35.637Z,11.00
2018-07-01T20:23:04.853Z,11.60
2018-07-01T20:28:03.818Z,12.50
2018-07-01T20:30:34.336Z,13.40
2018-07-01T20:33:03.874Z,14.80
2018-07-01T20:35:33.371Z,15.20
2018-07-01T20:38:03.067Z,15.90
2018-07-01T20:40:33.217Z,16.10
2018-07-01T20:43:02.460Z,16.50
2018-07-01T20:45:32.310Z,17.20
2018-07-01T20:48:02.092Z,17.20
2018-07-01T20:50:33.519Z,17.90
2018-07-01T20:53:03.522Z,18.20
2018-07-01T20:55:36.572Z,17.40
2018-07-01T20:58:07.395Z,18.00
2018-07-01T21:00:37.431Z,18.80
2018-07-01T21:03:07.183Z,19.50
2018-07-01T21:05:42.435Z,19.40
2018-07-01T21:08:17.830Z,20.00
2018-07-01T21:10:50.591Z,19.30
2018-07-01T21:13:20.334Z,20.40
2018-07-01T21:15:50.927Z,21.00
2018-07-01T21:18:20.398Z,22.10
2018-07-01T21:23:20.671Z,22.70
2018-07-01T21:25:50.931Z,22.90
2018-07-01T21:28:21.578Z,23.30
2018-07-01T21:30:50.858Z,23.40
2018-07-01T21:33:21.154Z,24.10
2018-07-01T21:35:50.370Z,23.60
2018-07-01T21:38:19.756Z,23.40
2018-07-01T21:40:51.513Z,24.00
2018-07-01T21:43:21.782Z,24.50
2018-07-01T21:45:51.760Z,25.30
2018-07-01T21:48:21.368Z,24.90
2018-07-01T21:50:51.869Z,25.50
2018-07-01T21:53:21.079Z,25.10
2018-07-01T21:55:50.434Z,25.90
2018-07-01T21:58:20.638Z,26.20
2018-07-01T22:00:51.296Z,26.40
2018-07-01T22:03:21.741Z,26.20
2018-07-01T22:05:50.965Z,25.90
2018-07-01T22:08:20.278Z,25.50
2018-07-01T22:13:03.504Z,25.90
2018-07-01T22:15:46.398Z,26.00
2018-07-01T22:18:15.640Z,26.30
2018-07-01T22:20:44.887Z,26.90
2018-07-01T22:23:15.226Z,27.00
2018-07-01T22:25:45.268Z,27.50
2018-07-01T22:28:16.404Z,27.90
2018-07-01T22:30:45.698Z,27.70
2018-07-01T22:33:15.146Z,27.90
2018-07-01T22:35:44.747Z,28.20
2018-07-01T22:38:14.061Z,28.40
2018-07-01T22:40:43.295Z,27.50
2018-07-01T22:43:12.656Z,27.80
2018-07-01T22:45:41.891Z,27.80
2018-07-01T22:48:11.093Z,28.40
2018-07-01T22:50:40.275Z,28.10
2018-07-01T22:53:09.516Z,28.70
2018-07-01T22:55:41.859Z,29.00
2018-07-01T22:58:11.012Z,29.00
2018-07-01T23:00:40.216Z,29.50
2018-07-01T23:03:22.694Z,30.00
2018-07-01T23:05:51.937Z,30.30
2018-07-01T23:08:21.114Z,30.30
2018-07-01T23:10:51.191Z,29.60
2018-07-01T23:13:20.400Z,29.90
2018-07-01T23:15:49.633Z,30.00
2018-07-01T23:18:18.817Z,31.20
2018-07-01T23:20:48.038Z,31.60
2018-07-01T23:23:17.530Z,31.60
2018-07-01T23:25:46.744Z,31.70
2018-07-01T23:28:15.959Z,31.70
2018-07-01T23:30:46.052Z,31.70
2018-07-01T23:33:15.334Z,31.60
2018-07-01T23:35:44.976Z,32.50
2018-07-01T23:38:14.438Z,33.90
2018-07-01T23:40:43.785Z,33.80
2018-07-01T23:43:13.505Z,34.30
2018-07-01T23:45:42.693Z,34.60
2018-07-01T23:48:11.903Z,35.40
2018-07-01T23:50:41.580Z,35.00
2018-07-01T23:53:12.105Z,35.00
2018-07-01T23:55:41.314Z,36.00
2018-07-01T23:58:10.550Z,36.50
